Time;durP1;ratioP1;P1;durP2;ratioP2;P2;SDS_P1;SDS_P2;PMS_P1;PMS_P2;Temp;Humidity;BMP_temperature;BMP_pressure;BME280_temperature;BME280_humidity;BME280_pressure;Samples;Min_cycle;Max_cycle;Signal;HPM_P1;HPM_P2
2023/05/29 00:01:12;;;;;;;6.87;4.93;;;14.30;99.90;;;;;;5047006;28;20449;-82
2023/05/29 00:03:38;;;;;;;6.38;5.15;;;14.40;99.90;;;;;;5050359;28;20398;-82
2023/05/29 00:06:04;;;;;;;6.30;4.80;;;14.40;99.90;;;;;;5049953;28;20402;-82
2023/05/29 00:08:29;;;;;;;8.30;5.20;;;14.80;99.90;;;;;;5038853;28;20440;-83
2023/05/29 00:10:55;;;;;;;7.40;5.00;;;14.20;99.90;;;;;;5037750;28;20390;-82
2023/05/29 00:13:20;;;;;;;8.27;5.40;;;14.90;99.90;;;;;;5020499;28;20387;-82
2023/05/29 00:15:46;;;;;;;7.65;5.00;;;13.90;99.90;;;;;;5019330;28;20453;-83
2023/05/29 00:18:11;;;;;;;7.60;5.00;;;13.90;99.90;;;;;;5038085;28;20407;-82
2023/05/29 00:20:37;;;;;;;6.97;4.93;;;14.10;99.90;;;;;;5038246;28;20754;-82
2023/05/29 00:23:05;;;;;;;6.50;4.93;;;14.10;99.90;;;;;;5038133;28;20409;-83
2023/05/29 00:25:31;;;;;;;6.45;4.90;;;13.60;99.90;;;;;;5020329;28;20885;-82
2023/05/29 00:27:57;;;;;;;7.37;5.40;;;15.50;99.90;;;;;;5038526;28;20395;-82
2023/05/29 00:30:22;;;;;;;6.10;4.83;;;13.90;99.90;;;;;;5038852;28;20395;-82
2023/05/29 00:32:48;;;;;;;7.68;5.40;;;13.70;99.90;;;;;;5019690;28;20395;-82
2023/05/29 00:35:13;;;;;;;7.30;4.80;;;14.00;99.90;;;;;;5037219;28;20387;-82
2023/05/29 00:37:39;;;;;;;6.90;5.20;;;13.70;99.90;;;;;;5036777;28;20403;-83
2023/05/29 00:40:06;;;;;;;6.40;5.30;;;13.80;99.90;;;;;;5025964;28;20387;-82
2023/05/29 00:42:31;;;;;;;7.60;4.85;;;13.90;99.90;;;;;;5053679;28;20451;-82
2023/05/29 00:44:57;;;;;;;7.65;4.90;;;13.80;99.90;;;;;;5053673;28;20410;-82
2023/05/29 00:47:22;;;;;;;7.70;5.20;;;13.90;99.90;;;;;;5050336;28;20406;-82
2023/05/29 00:49:51;;;;;;;5.50;4.50;;;13.30;99.90;;;;;;5017515;28;20459;-82
2023/05/29 00:52:18;;;;;;;7.18;5.15;;;13.90;99.90;;;;;;5028951;28;20468;-83
2023/05/29 00:54:45;;;;;;;7.03;5.00;;;14.00;99.90;;;;;;5035451;28;20377;-84
2023/05/29 00:57:12;;;;;;;9.15;5.53;;;13.70;99.90;;;;;;5037527;28;20410;-82
2023/05/29 00:59:39;;;;;;;7.53;5.30;;;13.60;99.90;;;;;;5024152;28;20440;-83
2023/05/29 01:02:05;;;;;;;7.30;4.97;;;13.50;99.90;;;;;;5014732;28;20474;-82
2023/05/29 01:04:33;;;;;;;7.03;4.90;;;13.60;99.90;;;;;;5027912;28;20408;-82
2023/05/29 01:07:00;;;;;;;6.57;4.78;;;13.40;99.90;;;;;;5038053;28;20385;-82
2023/05/29 01:09:25;;;;;;;7.28;5.28;;;13.50;99.90;;;;;;5021228;28;20377;-82
2023/05/29 01:12:03;;;;;;;6.32;4.65;;;14.00;99.90;;;;;;5019007;28;20499;-82
2023/05/29 01:14:44;;;;;;;7.47;5.50;;;13.60;99.90;;;;;;4997764;28;20400;-82
2023/05/29 01:17:25;;;;;;;6.45;5.07;;;13.70;99.90;;;;;;4995986;28;20389;-82
2023/05/29 01:20:08;;;;;;;6.78;4.72;;;13.50;99.90;;;;;;5014052;28;20407;-82
2023/05/29 01:22:54;;;;;;;5.53;5.00;;;13.30;99.90;;;;;;4998633;28;20953;-82
2023/05/29 01:25:56;;;;;;;6.32;4.80;;;13.30;99.90;;;;;;5016943;28;20487;-82
2023/05/29 01:28:26;;;;;;;6.78;4.85;;;13.60;99.90;;;;;;5016912;28;20393;-82
2023/05/29 01:30:53;;;;;;;7.17;5.60;;;15.60;99.90;;;;;;4998996;28;20396;-82
2023/05/29 01:33:19;;;;;;;7.63;5.80;;;13.00;99.90;;;;;;5016498;28;20450;-82
2023/05/29 01:35:45;;;;;;;7.10;5.10;;;12.80;99.90;;;;;;5016174;28;20396;-82
2023/05/29 01:38:10;;;;;;;5.55;4.60;;;13.20;99.90;;;;;;4998494;28;20500;-82
2023/05/29 01:40:36;;;;;;;6.53;5.07;;;13.20;99.90;;;;;;5016486;28;20457;-82
2023/05/29 01:43:02;;;;;;;7.43;4.50;;;13.20;99.90;;;;;;4998550;28;20384;-82
2023/05/29 01:45:28;;;;;;;7.38;5.00;;;12.90;99.90;;;;;;5015515;28;20431;-82
2023/05/29 01:47:55;;;;;;;6.32;4.90;;;13.00;99.90;;;;;;5015976;28;20392;-82
2023/05/29 01:50:24;;;;;;;9.05;5.43;;;12.80;99.90;;;;;;5015884;28;20751;-82
2023/05/29 01:52:49;;;;;;;6.47;4.90;;;13.00;99.90;;;;;;4998111;28;20424;-82
2023/05/29 01:55:15;;;;;;;7.18;5.50;;;13.00;99.90;;;;;;4998509;28;20408;-82
2023/05/29 01:57:41;;;;;;;7.05;5.18;;;13.00;99.90;;;;;;4998445;28;20471;-82
2023/05/29 02:00:11;;;;;;;6.60;4.88;;;12.80;99.90;;;;;;5035993;28;20800;-83
2023/05/29 02:02:40;;;;;;;6.70;5.00;;;13.00;99.90;;;;;;5034878;28;20386;-82
2023/05/29 02:05:07;;;;;;;7.35;5.50;;;12.80;99.90;;;;;;5021202;28;20392;-82
2023/05/29 02:07:33;;;;;;;7.07;4.80;;;13.10;99.90;;;;;;5015131;28;20389;-82
2023/05/29 02:09:58;;;;;;;8.05;5.40;;;12.70;99.90;;;;;;5017577;28;20439;-82
2023/05/29 02:12:24;;;;;;;7.57;4.73;;;12.60;99.90;;;;;;5017046;28;20464;-82
2023/05/29 02:14:49;;;;;;;6.63;5.30;;;12.90;99.90;;;;;;5014916;28;20465;-82
2023/05/29 02:17:15;;;;;;;9.70;5.68;;;12.40;99.90;;;;;;5014020;28;20407;-82
2023/05/29 02:19:40;;;;;;;7.03;5.30;;;12.60;99.90;;;;;;5015094;28;20405;-82
2023/05/29 02:22:07;;;;;;;7.77;5.27;;;12.70;99.90;;;;;;5014949;28;20388;-82
2023/05/29 02:24:33;;;;;;;7.65;5.05;;;12.50;99.90;;;;;;4997482;28;20419;-82
2023/05/29 02:26:58;;;;;;;8.43;5.20;;;12.20;99.90;;;;;;4996215;28;20516;-83
2023/05/29 02:29:24;;;;;;;7.20;4.95;;;12.60;99.90;;;;;;4996836;28;20507;-82
2023/05/29 02:31:49;;;;;;;6.60;5.30;;;12.40;99.90;;;;;;5014926;28;20385;-82
2023/05/29 02:34:15;;;;;;;7.37;5.50;;;12.30;99.90;;;;;;5014480;28;20400;-82
2023/05/29 02:36:40;;;;;;;6.78;4.65;;;12.00;99.90;;;;;;5013310;28;20395;-82
2023/05/29 02:39:06;;;;;;;7.13;4.90;;;12.00;99.90;;;;;;4996837;28;20468;-82
2023/05/29 02:41:31;;;;;;;6.47;4.80;;;12.40;99.90;;;;;;4996447;28;20389;-82
2023/05/29 02:43:57;;;;;;;7.23;5.17;;;12.00;99.90;;;;;;4998583;28;20563;-82
2023/05/29 02:46:22;;;;;;;7.50;5.43;;;12.10;99.90;;;;;;5000838;28;20403;-82
2023/05/29 02:48:48;;;;;;;7.67;5.37;;;12.10;99.90;;;;;;5017863;28;20385;-82
2023/05/29 02:51:14;;;;;;;7.20;5.20;;;12.10;99.90;;;;;;5000788;28;20397;-82
2023/05/29 02:53:40;;;;;;;7.37;4.83;;;12.20;99.90;;;;;;5019060;28;20384;-82
2023/05/29 02:56:08;;;;;;;7.60;4.80;;;12.10;99.90;;;;;;5000593;28;20439;-82
2023/05/29 02:58:35;;;;;;;8.40;5.18;;;12.30;99.90;;;;;;5024457;28;20398;-82
2023/05/29 03:01:02;;;;;;;6.50;4.90;;;12.00;99.90;;;;;;5019961;28;20486;-82
2023/05/29 03:03:27;;;;;;;7.10;4.95;;;12.00;99.90;;;;;;5037671;28;20398;-82
2023/05/29 03:05:53;;;;;;;7.40;4.80;;;12.10;99.90;;;;;;5017160;28;20875;-82
2023/05/29 03:08:18;;;;;;;8.88;6.38;;;12.10;99.90;;;;;;5018159;28;20413;-82
2023/05/29 03:10:44;;;;;;;7.72;5.47;;;12.30;99.90;;;;;;5000902;28;20396;-82
2023/05/29 03:13:10;;;;;;;6.53;4.40;;;11.90;99.90;;;;;;5000590;28;20393;-82
2023/05/29 03:15:35;;;;;;;5.37;4.80;;;12.20;99.90;;;;;;5018545;28;20432;-82
2023/05/29 03:18:01;;;;;;;7.80;5.30;;;12.00;99.90;;;;;;5027129;28;20381;-82
2023/05/29 03:20:27;;;;;;;7.30;5.47;;;12.00;99.90;;;;;;5018153;28;20397;-82
2023/05/29 03:22:53;;;;;;;6.95;4.70;;;11.70;99.90;;;;;;5038532;28;20395;-81
2023/05/29 03:25:21;;;;;;;8.52;5.47;;;11.30;99.90;;;;;;5055242;28;20414;-82
2023/05/29 03:27:47;;;;;;;6.55;4.78;;;11.90;99.90;;;;;;5023536;28;20395;-82
2023/05/29 03:30:12;;;;;;;7.23;5.30;;;11.90;99.90;;;;;;5038950;28;20393;-82
2023/05/29 03:32:38;;;;;;;9.23;5.30;;;11.90;99.90;;;;;;5038984;28;20401;-82
2023/05/29 03:35:04;;;;;;;5.90;4.63;;;11.60;99.90;;;;;;5020890;28;20403;-82
2023/05/29 03:37:30;;;;;;;6.65;5.30;;;11.90;99.90;;;;;;5038350;28;20785;-81
2023/05/29 03:39:55;;;;;;;7.75;5.15;;;11.80;99.90;;;;;;5038246;28;20407;-82
2023/05/29 03:42:21;;;;;;;7.30;5.17;;;11.90;99.90;;;;;;5037873;28;20469;-82
2023/05/29 03:44:46;;;;;;;8.10;5.75;;;11.60;99.90;;;;;;5038139;28;20446;-82
2023/05/29 03:47:12;;;;;;;5.47;4.82;;;11.50;99.90;;;;;;5037380;28;20406;-82
2023/05/29 03:49:38;;;;;;;8.73;5.63;;;11.90;99.90;;;;;;5020070;28;20485;-82
2023/05/29 03:52:04;;;;;;;8.20;5.37;;;11.80;99.90;;;;;;5038190;28;20458;-82
2023/05/29 03:54:29;;;;;;;7.40;5.10;;;11.90;99.90;;;;;;5036855;28;20395;-82
2023/05/29 03:56:55;;;;;;;5.80;4.95;;;11.80;99.90;;;;;;5019623;28;20388;-82
2023/05/29 03:59:20;;;;;;;7.40;5.40;;;12.00;99.90;;;;;;5006555;28;20412;-83
2023/05/29 04:01:46;;;;;;;7.87;5.17;;;11.70;99.90;;;;;;5018258;28;20413;-82
2023/05/29 04:04:12;;;;;;;6.75;4.72;;;11.90;99.90;;;;;;5024055;28;20719;-82
2023/05/29 04:06:40;;;;;;;7.95;5.25;;;11.80;99.90;;;;;;5018795;28;20402;-83
2023/05/29 04:09:09;;;;;;;7.88;4.63;;;11.60;99.90;;;;;;5037476;28;20467;-82
2023/05/29 04:11:35;;;;;;;8.63;5.65;;;11.70;99.90;;;;;;5019653;28;20970;-83
2023/05/29 04:14:01;;;;;;;6.55;5.10;;;11.80;99.90;;;;;;5036830;28;20448;-82
2023/05/29 04:16:30;;;;;;;7.20;5.30;;;11.80;99.90;;;;;;5036768;28;20478;-82
2023/05/29 04:18:56;;;;;;;6.67;5.40;;;11.80;99.90;;;;;;5037357;28;20467;-82
2023/05/29 04:21:22;;;;;;;7.30;5.30;;;11.40;99.90;;;;;;5018641;28;20438;-82
2023/05/29 04:23:47;;;;;;;9.23;5.30;;;12.00;99.90;;;;;;5040220;28;20387;-82
2023/05/29 04:26:13;;;;;;;6.40;4.90;;;12.10;99.90;;;;;;5038017;28;20383;-82
2023/05/29 04:28:39;;;;;;;7.65;4.70;;;12.00;99.90;;;;;;5018767;28;20387;-82
2023/05/29 04:31:05;;;;;;;8.20;5.10;;;12.30;99.90;;;;;;5036613;28;20427;-82
2023/05/29 04:33:32;;;;;;;6.30;4.47;;;12.60;99.90;;;;;;5018067;28;20424;-82
2023/05/29 04:36:00;;;;;;;10.07;5.10;;;12.00;99.90;;;;;;5018076;28;20395;-82
2023/05/29 04:38:26;;;;;;;10.20;5.28;;;12.20;99.90;;;;;;5035936;28;20403;-82
2023/05/29 04:40:57;;;;;;;6.83;4.50;;;12.60;99.90;;;;;;5018814;28;20387;-82
2023/05/29 04:43:22;;;;;;;6.03;4.95;;;12.10;99.90;;;;;;5017999;28;20426;-82
2023/05/29 04:45:48;;;;;;;8.90;5.30;;;12.40;99.90;;;;;;5017854;28;20444;-82
2023/05/29 04:48:14;;;;;;;5.75;4.40;;;12.60;99.90;;;;;;5035760;28;20391;-82
2023/05/29 04:50:39;;;;;;;7.38;5.10;;;12.50;99.90;;;;;;5018209;28;20395;-82
2023/05/29 04:53:05;;;;;;;7.80;5.00;;;12.50;99.90;;;;;;5036306;28;20884;-82
2023/05/29 04:55:30;;;;;;;8.27;5.20;;;12.60;99.90;;;;;;5035259;28;20831;-82
2023/05/29 04:57:56;;;;;;;7.63;5.70;;;12.30;99.90;;;;;;5017417;28;20392;-83
2023/05/29 05:00:22;;;;;;;7.63;5.30;;;12.70;99.90;;;;;;5033369;28;20391;-82
2023/05/29 05:02:49;;;;;;;6.93;5.20;;;12.20;99.90;;;;;;5016005;28;20528;-82
2023/05/29 05:05:15;;;;;;;7.05;5.20;;;12.30;99.90;;;;;;5013278;28;20380;-82
2023/05/29 05:07:40;;;;;;;6.95;5.10;;;12.40;99.90;;;;;;5035347;28;20896;-82
2023/05/29 05:10:07;;;;;;;6.35;4.88;;;12.90;99.90;;;;;;5037652;28;20447;-82
2023/05/29 05:12:32;;;;;;;7.30;4.93;;;12.80;99.90;;;;;;5042653;28;20460;-82
2023/05/29 05:14:58;;;;;;;7.90;5.10;;;12.90;99.90;;;;;;5025340;28;21130;-82
2023/05/29 05:17:23;;;;;;;10.15;5.30;;;12.90;99.90;;;;;;5042443;28;20406;-82
2023/05/29 05:19:49;;;;;;;7.40;5.30;;;13.00;99.90;;;;;;5043223;28;20411;-82
2023/05/29 05:22:15;;;;;;;7.57;4.68;;;13.20;99.90;;;;;;5046335;28;20526;-82
2023/05/29 05:24:41;;;;;;;7.22;5.25;;;13.10;99.90;;;;;;5031561;28;20474;-82
2023/05/29 05:27:06;;;;;;;7.28;5.60;;;12.80;99.90;;;;;;5049126;28;20426;-82
2023/05/29 05:29:32;;;;;;;7.40;5.33;;;12.70;99.90;;;;;;5048941;28;20395;-82
2023/05/29 05:31:57;;;;;;;8.50;5.40;;;13.60;99.90;;;;;;5050180;28;20399;-82
2023/05/29 05:34:23;;;;;;;7.18;5.35;;;13.60;99.90;;;;;;5052155;28;20378;-82
2023/05/29 05:36:49;;;;;;;6.45;4.90;;;13.40;99.90;;;;;;5053153;28;20460;-82
2023/05/29 05:39:14;;;;;;;5.40;4.90;;;13.20;99.90;;;;;;5068956;23;20430;-83
2023/05/29 05:41:40;;;;;;;7.40;5.30;;;13.30;99.90;;;;;;5074048;28;20384;-81
2023/05/29 05:44:06;;;;;;;6.50;5.50;;;13.20;99.90;;;;;;5073820;28;20856;-82
2023/05/29 05:46:31;;;;;;;7.07;5.35;;;13.40;99.90;;;;;;5071575;28;20402;-83
2023/05/29 05:48:57;;;;;;;6.15;4.78;;;13.90;99.90;;;;;;5056819;28;20807;-84
2023/05/29 05:51:26;;;;;;;5.83;4.97;;;14.00;99.90;;;;;;5074159;28;20390;-84
2023/05/29 05:53:52;;;;;;;10.52;5.78;;;14.30;99.90;;;;;;5036056;28;20404;-84
2023/05/29 05:56:17;;;;;;;7.93;5.20;;;13.90;99.90;;;;;;5036004;28;20389;-84
2023/05/29 05:58:43;;;;;;;6.40;4.47;;;13.90;99.90;;;;;;5036407;28;20401;-84
2023/05/29 06:01:08;;;;;;;6.63;4.83;;;13.60;99.90;;;;;;5036361;28;20389;-84
2023/05/29 06:03:35;;;;;;;6.32;4.60;;;16.90;99.90;;;;;;5036521;28;20424;-82
2023/05/29 06:06:01;;;;;;;9.00;4.72;;;15.20;99.90;;;;;;5054083;28;20389;-84
2023/05/29 06:08:26;;;;;;;8.27;5.40;;;14.00;99.90;;;;;;5036612;28;20445;-84
2023/05/29 06:10:52;;;;;;;8.63;5.57;;;14.50;99.90;;;;;;5054062;28;20385;-83
2023/05/29 06:13:18;;;;;;;7.70;5.03;;;14.40;99.90;;;;;;5035622;28;20377;-84
2023/05/29 06:15:43;;;;;;;5.72;4.82;;;14.40;99.90;;;;;;5054875;28;20386;-84
2023/05/29 06:18:09;;;;;;;8.88;6.00;;;16.70;99.90;;;;;;5055554;28;20389;-84
2023/05/29 06:20:35;;;;;;;6.40;5.40;;;15.00;99.90;;;;;;5055781;28;20435;-83
2023/05/29 06:23:00;;;;;;;6.40;4.77;;;14.90;99.90;;;;;;5054209;28;20389;-83
2023/05/29 06:25:32;;;;;;;6.93;5.28;;;14.40;99.90;;;;;;5055927;28;20445;-84
2023/05/29 06:28:01;;;;;;;7.63;5.65;;;15.10;99.90;;;;;;5036668;28;20389;-83
2023/05/29 06:30:27;;;;;;;6.85;4.60;;;15.50;99.90;;;;;;5054647;28;20447;-82
2023/05/29 06:32:53;;;;;;;7.13;4.95;;;15.40;99.90;;;;;;5053150;28;20374;-84
2023/05/29 06:35:18;;;;;;;7.03;4.93;;;15.20;99.90;;;;;;5036347;28;20519;-80
2023/05/29 06:37:45;;;;;;;7.78;5.32;;;15.70;99.90;;;;;;5034747;28;20389;-82
2023/05/29 06:40:12;;;;;;;7.73;5.80;;;15.80;99.90;;;;;;5051923;28;20420;-81
2023/05/29 06:42:37;;;;;;;9.70;5.57;;;15.80;99.90;;;;;;5052237;28;20377;-80
2023/05/29 06:45:03;;;;;;;6.80;5.10;;;16.00;99.90;;;;;;5052519;28;20472;-81
2023/05/29 06:47:28;;;;;;;6.07;5.47;;;16.20;99.90;;;;;;5051145;28;20373;-81
2023/05/29 06:49:54;;;;;;;6.33;5.60;;;15.60;99.90;;;;;;5036805;28;20401;-81
2023/05/29 06:52:19;;;;;;;7.23;5.20;;;16.00;99.90;;;;;;5054598;28;20398;-81
2023/05/29 06:54:45;;;;;;;8.70;5.43;;;15.90;99.90;;;;;;5079731;28;20423;-82
2023/05/29 06:57:10;;;;;;;7.60;4.90;;;16.30;99.90;;;;;;5054940;28;20818;-81
2023/05/29 06:59:36;;;;;;;7.53;5.30;;;16.40;99.90;;;;;;5083203;28;20405;-81
2023/05/29 07:02:01;;;;;;;8.30;5.55;;;16.30;99.90;;;;;;5101604;28;20382;-80
2023/05/29 07:04:27;;;;;;;8.57;5.40;;;16.70;99.90;;;;;;5094014;28;20418;-79
2023/05/29 07:06:52;;;;;;;7.90;6.00;;;16.80;99.90;;;;;;5074915;28;20951;-81
2023/05/29 07:09:18;;;;;;;7.63;5.60;;;16.50;99.90;;;;;;5053314;28;20478;-80
2023/05/29 07:11:44;;;;;;;6.77;5.30;;;19.30;99.90;;;;;;5060097;28;20384;-81
2023/05/29 07:14:09;;;;;;;7.53;5.50;;;16.60;99.90;;;;;;5058033;28;20908;-82
2023/05/29 07:16:35;;;;;;;7.50;5.28;;;16.50;99.90;;;;;;5056283;28;20392;-82
2023/05/29 07:19:00;;;;;;;7.27;5.07;;;16.40;99.90;;;;;;5063985;28;20395;-79
2023/05/29 07:21:26;;;;;;;9.90;6.13;;;16.80;99.90;;;;;;5068440;28;20434;-79
2023/05/29 07:23:51;;;;;;;7.00;5.40;;;16.60;99.90;;;;;;5063890;28;20804;-80
2023/05/29 07:26:17;;;;;;;7.47;5.30;;;16.80;99.90;;;;;;5055258;28;20782;-81
2023/05/29 07:28:42;;;;;;;7.13;5.60;;;16.90;99.90;;;;;;5055762;28;20388;-81
2023/05/29 07:31:08;;;;;;;7.10;5.60;;;16.70;99.90;;;;;;5059416;28;20392;-80
2023/05/29 07:33:34;;;;;;;7.80;5.30;;;16.70;99.90;;;;;;5059020;28;20487;-81
2023/05/29 07:36:00;;;;;;;7.10;5.60;;;16.60;99.90;;;;;;5077176;28;20391;-81
2023/05/29 07:38:26;;;;;;;8.05;5.60;;;17.30;99.90;;;;;;5058763;28;20412;-82
2023/05/29 07:40:51;;;;;;;7.00;5.37;;;16.80;99.90;;;;;;5076263;28;20510;-82
2023/05/29 07:43:17;;;;;;;7.50;5.60;;;17.20;99.90;;;;;;5058539;28;20498;-82
2023/05/29 07:45:42;;;;;;;8.52;5.68;;;17.20;99.90;;;;;;5068034;28;20403;-81
2023/05/29 07:48:08;;;;;;;6.73;5.20;;;17.10;99.90;;;;;;5061559;28;20385;-81
2023/05/29 07:50:33;;;;;;;7.50;5.30;;;16.80;99.90;;;;;;5056042;28;20378;-81
2023/05/29 07:53:00;;;;;;;6.57;5.25;;;17.30;99.90;;;;;;5058788;28;20832;-83
2023/05/29 07:55:25;;;;;;;8.32;5.50;;;17.40;99.90;;;;;;5055604;28;20465;-81
2023/05/29 07:57:53;;;;;;;7.63;5.30;;;17.40;99.90;;;;;;5054900;28;21261;-81
2023/05/29 08:00:18;;;;;;;6.93;4.87;;;17.50;99.90;;;;;;5056843;28;20445;-81
2023/05/29 08:02:44;;;;;;;6.80;5.38;;;18.10;99.90;;;;;;5056699;28;21072;-82
2023/05/29 08:05:09;;;;;;;6.65;5.20;;;17.90;99.90;;;;;;5060364;28;20446;-81
2023/05/29 08:07:36;;;;;;;7.20;5.03;;;17.60;99.90;;;;;;5053928;28;20426;-80
2023/05/29 08:10:02;;;;;;;7.28;5.40;;;18.30;99.90;;;;;;5066487;28;20428;-79
2023/05/29 08:12:27;;;;;;;5.95;5.10;;;17.80;99.90;;;;;;5053100;28;20390;-80
2023/05/29 08:14:53;;;;;;;6.57;4.73;;;18.00;99.90;;;;;;5051544;28;20424;-78
2023/05/29 08:17:18;;;;;;;6.70;4.80;;;17.90;99.90;;;;;;5068714;28;20397;-79
2023/05/29 08:19:44;;;;;;;9.43;5.35;;;18.00;99.90;;;;;;5083686;28;20495;-79
2023/05/29 08:22:12;;;;;;;6.90;5.30;;;18.60;99.90;;;;;;5087158;28;20385;-80
2023/05/29 08:24:38;;;;;;;6.80;4.90;;;18.20;99.90;;;;;;5087007;28;20383;-78
2023/05/29 08:27:04;;;;;;;8.23;5.30;;;18.70;99.90;;;;;;5056940;28;20393;-78
2023/05/29 08:29:29;;;;;;;7.57;4.80;;;18.20;99.90;;;;;;5068331;28;20381;-79
2023/05/29 08:31:55;;;;;;;7.43;5.00;;;18.10;99.90;;;;;;5068574;28;20389;-80
2023/05/29 08:34:20;;;;;;;5.30;4.70;;;18.30;99.90;;;;;;5071712;28;20380;-80
2023/05/29 08:36:46;;;;;;;7.80;4.90;;;18.70;99.90;;;;;;5049883;28;20399;-81
2023/05/29 08:39:11;;;;;;;6.43;4.90;;;18.70;99.90;;;;;;5061673;28;20835;-80
2023/05/29 08:41:55;;;;;;;7.68;4.80;;;18.40;99.90;;;;;;5076300;28;20380;-80
2023/05/29 08:44:22;;;;;;;6.93;4.95;;;18.70;99.90;;;;;;5061781;28;20844;-80
2023/05/29 08:46:54;;;;;;;4.90;4.40;;;18.90;99.90;;;;;;5084623;28;20381;-80
2023/05/29 08:49:22;;;;;;;6.40;4.97;;;19.30;99.90;;;;;;5090982;28;20769;-80
2023/05/29 08:51:50;;;;;;;7.72;5.10;;;19.40;99.90;;;;;;5079025;28;20397;-81
2023/05/29 08:54:16;;;;;;;6.47;4.60;;;19.00;99.90;;;;;;5078229;28;20859;-79
2023/05/29 08:56:42;;;;;;;5.40;4.70;;;20.20;99.90;;;;;;5065212;28;20413;-78
2023/05/29 08:59:09;;;;;;;5.43;4.70;;;18.80;99.90;;;;;;5059108;28;20412;-78
2023/05/29 09:01:36;;;;;;;8.57;4.20;;;18.70;99.90;;;;;;5057872;28;20380;-79
2023/05/29 09:04:01;;;;;;;4.82;4.20;;;19.60;99.90;;;;;;5059643;28;20812;-79
2023/05/29 09:06:27;;;;;;;7.67;5.00;;;19.60;99.90;;;;;;5078172;28;20405;-78
2023/05/29 09:08:53;;;;;;;6.00;4.63;;;19.70;99.90;;;;;;5074886;28;20409;-80
2023/05/29 09:11:19;;;;;;;7.77;4.70;;;19.50;99.90;;;;;;5085784;28;20499;-80
2023/05/29 09:13:46;;;;;;;5.95;4.53;;;19.70;99.90;;;;;;5096553;28;20859;-80
2023/05/29 09:16:12;;;;;;;5.93;4.43;;;20.10;99.90;;;;;;5077534;28;20394;-79
2023/05/29 09:18:37;;;;;;;8.20;4.80;;;19.70;99.90;;;;;;5070528;28;20419;-82
2023/05/29 09:21:10;;;;;;;5.77;4.70;;;19.80;99.90;;;;;;5075285;28;20754;-81
2023/05/29 09:23:36;;;;;;;5.80;4.40;;;20.30;99.90;;;;;;5071181;28;20429;-80
2023/05/29 09:26:03;;;;;;;5.67;4.47;;;20.10;99.90;;;;;;5051354;28;20487;-79
2023/05/29 09:28:31;;;;;;;5.20;4.70;;;20.60;99.90;;;;;;5094270;28;20428;-81
2023/05/29 09:30:57;;;;;;;6.45;4.50;;;20.10;99.90;;;;;;5095386;28;20386;-82
2023/05/29 09:33:22;;;;;;;6.18;4.25;;;20.80;99.90;;;;;;5095368;28;20386;-82
2023/05/29 09:35:49;;;;;;;7.97;4.40;;;22.20;99.90;;;;;;5085513;28;20770;-81
2023/05/29 09:38:19;;;;;;;5.20;4.25;;;20.70;99.90;;;;;;5054178;28;20413;-83
2023/05/29 09:40:46;;;;;;;5.10;4.20;;;20.80;99.90;;;;;;5066540;28;20402;-80
2023/05/29 09:43:13;;;;;;;5.43;4.07;;;21.20;99.90;;;;;;5051254;28;20403;-80
2023/05/29 09:45:40;;;;;;;6.78;4.47;;;21.80;99.90;;;;;;5063687;28;20426;-80
2023/05/29 09:48:08;;;;;;;5.20;4.10;;;20.90;99.90;;;;;;5055013;28;20426;-79
2023/05/29 09:50:34;;;;;;;6.40;4.40;;;21.40;99.90;;;;;;5072332;28;20409;-78
2023/05/29 09:53:01;;;;;;;4.80;3.70;;;21.10;99.90;;;;;;5065509;28;20461;-80
2023/05/29 09:55:28;;;;;;;8.98;4.78;;;21.10;99.90;;;;;;5076408;28;20402;-79
2023/05/29 09:57:54;;;;;;;6.60;3.90;;;21.30;99.90;;;;;;5063012;28;20392;-79
2023/05/29 10:00:21;;;;;;;5.20;3.50;;;21.20;99.90;;;;;;5055073;28;20830;-79
2023/05/29 10:02:48;;;;;;;4.83;3.80;;;22.00;99.90;;;;;;5067869;28;20437;-80
2023/05/29 10:05:15;;;;;;;5.47;3.90;;;22.30;99.90;;;;;;5086600;28;20395;-79
2023/05/29 10:07:48;;;;;;;4.30;3.90;;;22.40;99.90;;;;;;5088102;28;20412;-80
2023/05/29 10:10:16;;;;;;;4.77;3.80;;;21.90;99.90;;;;;;5063655;28;20510;-80
2023/05/29 10:12:47;;;;;;;4.82;4.10;;;22.50;99.90;;;;;;5073431;28;20464;-81
2023/05/29 10:15:17;;;;;;;7.70;4.30;;;22.00;99.90;;;;;;5085489;28;20923;-80
2023/05/29 10:18:04;;;;;;;4.93;3.53;;;22.10;99.90;;;;;;5059029;28;20486;-80
2023/05/29 10:20:33;;;;;;;6.15;4.30;;;22.60;99.90;;;;;;5055339;28;20404;-80
2023/05/29 10:23:02;;;;;;;6.50;3.95;;;22.20;99.90;;;;;;5084233;28;20409;-89
2023/05/29 10:25:30;;;;;;;5.78;3.63;;;22.50;99.90;;;;;;5075381;28;21133;-86
2023/05/29 10:27:57;;;;;;;6.00;4.15;;;22.10;99.90;;;;;;5088711;28;20386;-87
2023/05/29 10:30:41;;;;;;;5.38;3.80;;;24.60;5.20;;;;;;5053105;28;20455;-86
2023/05/29 10:33:44;;;;;;;8.27;4.30;;;22.60;44.60;;;;;;5034293;28;20451;-88
2023/05/29 10:36:14;;;;;;;7.60;4.00;;;22.60;1.00;;;;;;5034253;28;20404;-87
2023/05/29 10:38:47;;;;;;;5.57;3.70;;;22.50;1.00;;;;;;5041191;28;20407;-88
2023/05/29 10:41:27;;;;;;;6.30;3.80;;;26.10;1.00;;;;;;5061856;28;20379;-87
2023/05/29 10:44:00;;;;;;;4.70;3.80;;;23.20;1.00;;;;;;5053989;28;20870;-87
2023/05/29 10:46:44;;;;;;;5.00;3.37;;;;;;;;;;5035131;28;20416;-88
2023/05/29 10:49:22;;;;;;;5.03;3.70;;;23.50;1.00;;;;;;5046219;28;20409;-87
2023/05/29 10:51:48;;;;;;;4.50;3.60;;;22.60;99.90;;;;;;5065531;28;20386;-88
2023/05/29 10:54:14;;;;;;;5.47;3.70;;;23.10;99.90;;;;;;5074400;28;20392;-88
2023/05/29 10:56:41;;;;;;;5.40;3.28;;;23.90;4.20;;;;;;5072927;28;20895;-88
2023/05/29 10:59:07;;;;;;;5.13;3.92;;;23.20;99.90;;;;;;5052266;28;20424;-89
2023/05/29 11:01:45;;;;;;;5.65;4.40;;;26.20;1.00;;;;;;5063871;28;20413;-86
2023/05/29 11:04:20;;;;;;;6.03;4.00;;;;;;;;;;5075921;28;20482;-89
2023/05/29 11:06:46;;;;;;;4.90;3.80;;;24.20;1.00;;;;;;5061616;28;20384;-87
2023/05/29 11:09:37;;;;;;;4.95;3.85;;;26.80;1.00;;;;;;5052925;28;20802;-87
2023/05/29 11:12:42;;;;;;;5.32;3.97;;;24.80;1.00;;;;;;5076647;28;20409;-87
2023/05/29 11:15:14;;;;;;;4.35;3.70;;;25.10;1.00;;;;;;5077061;28;20476;-89
2023/05/29 11:17:39;;;;;;;5.80;4.40;;;25.50;1.00;;;;;;5073031;28;20513;-87
2023/05/29 11:20:24;;;;;;;4.50;4.10;;;26.00;1.00;;;;;;5076393;28;20474;-87
2023/05/29 11:22:59;;;;;;;8.57;3.67;;;25.60;1.00;;;;;;5055639;28;20428;-88
2023/05/29 11:25:28;;;;;;;4.50;3.63;;;26.20;1.00;;;;;;5079422;28;20421;-88
2023/05/29 11:27:57;;;;;;;5.60;4.43;;;26.70;1.00;;;;;;5067394;28;20498;-87
2023/05/29 11:30:26;;;;;;;4.85;3.90;;;27.00;1.00;;;;;;5083881;28;20387;-86
2023/05/29 11:32:53;;;;;;;4.10;3.70;;;;;;;;;;5076051;28;20427;-87
2023/05/29 11:35:22;;;;;;;5.40;3.67;;;27.10;1.00;;;;;;5056811;28;20397;-87
2023/05/29 11:37:48;;;;;;;4.70;3.97;;;27.90;1.00;;;;;;5054923;28;20377;-87
2023/05/29 11:40:15;;;;;;;4.32;3.88;;;27.00;1.00;;;;;;5038382;28;20405;-86
2023/05/29 11:42:45;;;;;;;3.90;3.60;;;31.00;1.00;;;;;;5055332;28;20388;-86
2023/05/29 11:45:16;;;;;;;5.00;3.90;;;31.20;1.00;;;;;;5057865;28;20380;-86
2023/05/29 11:47:57;;;;;;;5.97;4.07;;;29.90;1.00;;;;;;5066665;28;20495;-86
2023/05/29 11:50:30;;;;;;;4.78;3.97;;;30.50;1.00;;;;;;5068297;28;20896;-86
2023/05/29 11:52:57;;;;;;;4.80;4.20;;;30.40;1.00;;;;;;5061172;28;20380;-87
2023/05/29 11:55:24;;;;;;;4.80;4.00;;;31.40;1.00;;;;;;5049613;28;20451;-87
2023/05/29 11:57:51;;;;;;;4.60;4.00;;;32.20;1.00;;;;;;5060401;28;20397;-87
2023/05/29 12:00:18;;;;;;;4.70;3.95;;;32.50;1.00;;;;;;5068833;28;20917;-87
2023/05/29 12:02:46;;;;;;;4.60;3.97;;;30.70;1.00;;;;;;5073232;28;20383;-87
2023/05/29 12:05:14;;;;;;;4.82;3.80;;;31.80;1.00;;;;;;5041550;28;20388;-86
2023/05/29 12:07:53;;;;;;;5.10;4.60;;;30.90;1.00;;;;;;5046216;28;20412;-87
2023/05/29 12:10:20;;;;;;;5.10;4.60;;;31.40;1.00;;;;;;5053445;28;20401;-87
2023/05/29 12:12:58;;;;;;;4.85;4.35;;;31.10;1.00;;;;;;5061172;28;20731;-86
2023/05/29 12:15:24;;;;;;;5.47;4.00;;;30.20;1.00;;;;;;5063328;28;20775;-86
2023/05/29 12:17:51;;;;;;;4.13;3.72;;;32.20;1.00;;;;;;5067524;28;20776;-86
2023/05/29 12:20:17;;;;;;;5.30;4.63;;;30.40;1.00;;;;;;5050694;28;20431;-87
2023/05/29 12:22:44;;;;;;;5.03;4.17;;;33.50;1.00;;;;;;5067425;28;20385;-88
2023/05/29 12:25:21;;;;;;;5.18;4.60;;;30.30;1.00;;;;;;5093498;28;20859;-85
2023/05/29 12:27:48;;;;;;;5.03;4.28;;;29.50;1.00;;;;;;5089826;28;20374;-86
2023/05/29 12:30:18;;;;;;;5.10;3.90;;;31.40;1.00;;;;;;5058371;28;20390;-87
2023/05/29 12:32:46;;;;;;;4.50;4.10;;;29.90;1.00;;;;;;5088372;28;20403;-86
2023/05/29 12:35:27;;;;;;;4.25;3.85;;;29.60;1.00;;;;;;5092598;28;20429;-86
2023/05/29 12:38:08;;;;;;;4.43;4.03;;;30.80;1.00;;;;;;5104005;28;20401;-86
2023/05/29 12:40:34;;;;;;;5.20;4.70;;;31.40;1.00;;;;;;5057120;28;20417;-88
2023/05/29 12:43:05;;;;;;;4.70;4.30;;;31.20;1.00;;;;;;5080910;28;20421;-84
2023/05/29 12:45:32;;;;;;;4.32;3.92;;;30.70;1.00;;;;;;5073308;28;20384;-86
2023/05/29 12:48:06;;;;;;;5.15;4.65;;;34.50;1.00;;;;;;5083676;28;21728;-86
2023/05/29 12:51:07;;;;;;;4.88;4.43;;;32.20;1.00;;;;;;5072732;28;20479;-88
2023/05/29 12:53:33;;;;;;;4.20;3.80;;;30.50;1.00;;;;;;5032647;28;20504;-87